Flight Track Log - Related Links

Times and Time Zones

All times are in EDT time to prevent confusion due to time zone crossing. See the DAL95 flight status page for this flight to view local times or setup timezone preferences in your user account.

Time Position Orientation Groundspeed Altitude Reporting Facility
EDT Latitude Longitude Course Direction KTS MPH feet Rate Location/Type
Mon 04:29:00 AM 41.3418 1.9418 294° West  Level FlightAware Approximate
Mon 04:30:00 AM 41.3923 1.8064 294° West  Level FlightAware Approximate
Mon 04:31:00 AM 41.4432 1.6738 301° West  Level FlightAware Approximate
Mon 04:32:00 AM 41.4968 1.5429 294° West  Level FlightAware Approximate
Mon 04:33:00 AM 41.5424 1.4063 294° West  Level FlightAware Approximate
Mon 04:34:00 AM 41.5928 1.2728 297° West  Level FlightAware Approximate
Mon 04:35:00 AM 41.6440 1.1397 297° West  Level FlightAware Approximate
Mon 04:36:00 AM 41.6951 1.0064 297° West  Level FlightAware Approximate
Mon 04:37:00 AM 41.7431 0.8710 294° West  Level FlightAware Approximate
Mon 04:37:02 AM 41.2880 2.0500 294° West 169 194 900  Level FlightAware ADS-B
Mon 04:37:32 AM 41.2790 2.0210 248° West 165 190 2,100 2,100 Climbing FlightAware ADS-B
Mon 04:38:02 AM 41.2710 1.9970 246° West 161 185 3,000 1,418 Climbing FlightAware ADS-B
Mon 04:38:27 AM 41.2620 1.9700 246° West 189 217 3,400 900 Climbing FlightAware ADS-B
Mon 04:38:42 AM 41.2560 1.9520 246° West 212 244 3,600 1,050 Climbing FlightAware ADS-B
Mon 04:39:07 AM 41.2450 1.9210 245° Southwest 240 276 4,100 1,350 Climbing FlightAware ADS-B
Mon 04:39:22 AM 41.2400 1.8980 254° West 258 297 4,500 2,533 Climbing FlightAware ADS-B
Mon 04:39:52 AM 41.2480 1.8510 283° West 262 302 6,000 2,800 Climbing FlightAware ADS-B
Mon 04:40:22 AM 41.2620 1.8040 292° West 270 311 7,300 2,400 Climbing FlightAware ADS-B
Mon 04:40:47 AM 41.2720 1.7660 289° West 280 322 8,200 2,400 Climbing FlightAware ADS-B
Mon 04:41:02 AM 41.2790 1.7400 290° West 281 323 8,900 1,855 Climbing FlightAware ADS-B
Mon 04:41:57 AM 41.2990 1.6610 289° West 10,800 1,705 Climbing FlightAware ADS-B
Mon 04:42:37 AM 41.3220 1.5740 289° West 340 391 11,600 1,765 Climbing FlightAware ADS-B
Mon 04:43:22 AM 41.3450 1.4830 289° West 350 403 13,300 2,300 Climbing FlightAware ADS-B
Mon 04:43:37 AM 41.3570 1.4520 297° West 356 410 13,900 2,400 Climbing FlightAware ADS-B
Mon 04:44:17 AM 41.3980 1.3830 308° West 361 415 15,500 2,175 Climbing FlightAware ADS-B
Mon 04:44:57 AM 41.4390 1.3120 308° West 369 425 16,800 1,765 Climbing FlightAware ADS-B
Mon 04:45:42 AM 41.4870 1.2320 309° West 381 438 18,000 1,140 Climbing FlightAware ADS-B
Mon 04:46:37 AM 41.5350 1.1480 307° West 384 442 18,700 1,705 Climbing FlightAware ADS-B
Mon 04:47:17 AM 41.5850 1.0630 308° West 392 451 20,700 1,579 Climbing FlightAware ADS-B
Mon 04:48:12 AM 41.6450 0.9580 307° West 407 468 21,200 1,320 Climbing FlightAware ADS-B
Mon 04:48:57 AM 41.6960 0.8720 308° West 412 474 22,900 2,047 Climbing FlightAware ADS-B
Mon 04:49:37 AM 41.7560 0.7680 308° West 419 482 24,100 1,624 Climbing FlightAware ADS-B
Mon 04:50:22 AM 41.8080 0.6760 307° West 421 484 25,200 1,271 Climbing FlightAware ADS-B
Mon 04:51:02 AM 41.8570 0.5920 308° West 428 493 25,900 988 Climbing FlightAware ADS-B
Mon 04:51:47 AM 41.9100 0.4990 307° West 437 503 26,600 1,129 Climbing FlightAware ADS-B
Mon 04:52:27 AM 41.9610 0.4080 307° West 438 504 27,500 1,200 Climbing FlightAware ADS-B
Mon 04:53:07 AM 42.0020 0.3150 301° West 440 506 28,200 988 Climbing FlightAware ADS-B
Mon 04:53:52 AM 42.0420 0.2080 297° West 444 511 28,900 825 Climbing FlightAware ADS-B
Mon 04:54:27 AM 42.0730 0.1250 297° West 449 517 29,300 776 Climbing FlightAware ADS-B
Mon 04:55:17 AM 42.1230 -0.0080 297° West 453 521 30,000 933 Climbing FlightAware ADS-B
Mon 04:55:57 AM 42.1610 -0.1120 296° West 453 521 30,700 1,200 Climbing FlightAware ADS-B
Mon 04:56:37 AM 42.1980 -0.2110 297° West 446 513 31,600 1,271 Climbing FlightAware ADS-B
Mon 04:57:22 AM 42.2380 -0.3200 296° West 440 506 32,500 1,059 Climbing FlightAware ADS-B
Mon 04:58:02 AM 42.2740 -0.4180 296° West 438 504 33,100 988 Climbing FlightAware ADS-B
Mon 04:58:47 AM 42.3130 -0.5250 296° West 435 501 33,900 1,059 Climbing FlightAware ADS-B
Mon 04:59:27 AM 42.3500 -0.6260 296° West 428 493 34,600 900 Climbing FlightAware ADS-B
Mon 05:00:07 AM 42.3840 -0.7200 296° West 428 493 35,100 635 Climbing FlightAware ADS-B
Mon 05:00:52 AM 42.4240 -0.8310 296° West 433 498 35,500 565 Climbing FlightAware ADS-B
Mon 05:01:32 AM 42.4600 -0.9290 296° West 432 497 35,900 494 Climbing FlightAware ADS-B
Mon 05:02:17 AM 42.4980 -1.0350 296° West 436 502 36,200 494 Climbing FlightAware ADS-B
Mon 05:02:57 AM 42.5330 -1.1340 296° West 438 504 36,600 565 Climbing FlightAware ADS-B
Mon 05:03:42 AM 42.5730 -1.2450 296° West 436 502 37,000 300 Climbing FlightAware ADS-B
Mon 05:04:17 AM 42.6020 -1.3280 295° West 432 497 37,000  Level FlightAware ADS-B
Mon 05:05:02 AM 42.6410 -1.4380 296° West 431 496 37,000  Level FlightAware ADS-B
Mon 05:05:47 AM 42.6800 -1.5490 296° West 431 496 37,000  Level FlightAware ADS-B
Mon 05:06:27 AM 42.7140 -1.6440 296° West 432 497 37,000  Level FlightAware ADS-B
Mon 05:07:07 AM 42.7550 -1.7490 298° West 435 501 37,000  Level FlightAware ADS-B
Mon 05:07:52 AM 42.8030 -1.8490 303° West 435 501 37,000  Level FlightAware ADS-B
Mon 05:08:47 AM 42.8600 -1.9710 303° West 433 498 37,000  Level FlightAware ADS-B
Mon 05:09:32 AM 42.9110 -2.0790 303° West 435 501 37,000  Level FlightAware ADS-B
Mon 05:10:12 AM 42.9510 -2.1650 302° West 434 499 37,000  Level FlightAware ADS-B
Mon 05:10:52 AM 42.9950 -2.2590 303° West 432 497 37,000  Level FlightAware ADS-B
Mon 05:11:32 AM 43.0230 -2.3620 290° West 426 490 37,000  Level FlightAware ADS-B
Mon 05:12:17 AM 43.0460 -2.4770 285° West 426 490 37,000  Level FlightAware ADS-B
Mon 05:13:02 AM 43.0720 -2.6000 286° West 426 490 37,000  Level FlightAware ADS-B
Mon 05:13:52 AM 43.0960 -2.7190 285° West 426 490 37,000  Level FlightAware ADS-B
Mon 05:14:37 AM 43.1210 -2.8420 286° West 425 489 37,000  Level FlightAware ADS-B
Mon 05:15:17 AM 43.1390 -2.9350 285° West 425 489 37,000  Level FlightAware ADS-B
Mon 05:16:02 AM 43.1630 -3.0550 285° West 426 490 37,000  Level FlightAware ADS-B
Mon 05:16:42 AM 43.1850 -3.1650 285° West 427 491 37,000  Level FlightAware ADS-B
Mon 05:17:27 AM 43.2090 -3.2830 286° West 427 491 37,000  Level FlightAware ADS-B
Mon 05:18:07 AM 43.2280 -3.3820 285° West 427 491 37,000  Level FlightAware ADS-B
Mon 05:18:42 AM 43.2460 -3.4710 286° West 426 490 37,000  Level FlightAware ADS-B
Mon 05:19:32 AM 43.2690 -3.5960 284° West 425 489 37,000  Level FlightAware ADS-B
Mon 05:20:12 AM 43.2850 -3.6850 284° West 425 489 37,000  Level FlightAware ADS-B
Mon 05:20:52 AM 43.3010 -3.7740 284° West 425 489 37,000  Level FlightAware ADS-B
Mon 05:21:32 AM 43.3170 -3.8630 284° West 425 489 37,000  Level FlightAware ADS-B
Mon 05:22:12 AM 43.3520 -4.0260 287° West 430 495 37,000  Level FlightAware ADS-B
Mon 05:23:02 AM 43.3770 -4.1590 285° West 431 496 37,000  Level FlightAware ADS-B
Mon 05:23:42 AM 43.3980 -4.2690 285° West 432 497 37,000  Level FlightAware ADS-B
Mon 05:24:27 AM 43.4200 -4.3870 284° West 430 495 37,000  Level FlightAware ADS-B
Mon 05:25:02 AM 43.4350 -4.4690 284° West 430 495 37,000  Level FlightAware ADS-B
Mon 05:25:52 AM 43.4530 -4.6160 280° West 427 491 37,000  Level FlightAware ADS-B
Mon 05:26:32 AM 43.4620 -4.7210 277° West 429 494 37,000  Level FlightAware ADS-B
Mon 05:27:12 AM 43.4710 -4.8310 276° West 428 493 37,000  Level FlightAware ADS-B
Mon 05:27:57 AM 43.4800 -4.9530 276° West 428 493 37,000  Level FlightAware ADS-B
Mon 05:28:37 AM 43.4880 -5.0600 276° West 426 490 37,000  Level FlightAware ADS-B
Mon 05:29:17 AM 43.4970 -5.1690 277° West 424 488 37,000  Level FlightAware ADS-B
Mon 05:29:57 AM 43.5050 -5.2760 276° West 423 487 37,000  Level FlightAware ADS-B
Mon 05:30:42 AM 43.5140 -5.3960 276° West 423 487 37,000  Level FlightAware ADS-B
Mon 05:31:27 AM 43.5220 -5.5160 275° West 420 483 37,000  Level FlightAware ADS-B
Mon 05:32:02 AM 43.5290 -5.6060 276° West 420 483 37,000  Level FlightAware ADS-B
Mon 05:32:52 AM 43.5380 -5.7350 276° West 420 483 37,000  Level FlightAware ADS-B
Mon 05:33:32 AM 43.5470 -5.8480 276° West 420 483 37,000  Level FlightAware ADS-B
Mon 05:34:12 AM 43.5630 -5.9530 282° West 421 484 37,000  Level FlightAware ADS-B
Mon 05:34:57 AM 43.5930 -6.0650 290° West 421 484 37,000  Level FlightAware ADS-B
Mon 05:35:37 AM 43.6330 -6.1590 300° West 416 479 37,000  Level FlightAware ADS-B
Mon 05:36:17 AM 43.6750 -6.2410 305° West 397 457 37,000  Level FlightAware ADS-B
Mon 05:37:02 AM 43.7230 -6.3350 305° West 395 455 37,000  Level FlightAware ADS-B
Mon 05:37:37 AM 43.7590 -6.4070 305° West 397 457 37,000  Level FlightAware ADS-B
Mon 05:38:27 AM 43.8110 -6.5100 305° West 398 458 37,000  Level FlightAware ADS-B
Mon 05:39:07 AM 43.8540 -6.5970 304° West 399 459 37,000  Level FlightAware ADS-B
Mon 05:39:47 AM 43.8960 -6.6810 305° West 400 460 37,000  Level FlightAware ADS-B
Mon 05:40:32 AM 43.9430 -6.7780 304° West 411 473 37,000 71 Level FlightAware ADS-B
Mon 05:41:12 AM 43.9850 -6.8630 304° West 417 480 37,100 212 Climbing FlightAware ADS-B
Mon 05:41:57 AM 44.0350 -6.9650 304° West 423 487 37,300 212 Climbing FlightAware ADS-B
Mon 05:42:37 AM 44.0790 -7.0550 304° West 428 493 37,400 320 Climbing FlightAware ADS-B
Mon 05:43:12 AM 44.1200 -7.1390 304° West 428 493 37,700 424 Climbing FlightAware ADS-B
Mon 05:44:02 AM 44.1720 -7.2450 304° West 428 493 38,000 200 Climbing FlightAware ADS-B
Mon 05:44:42 AM 44.2200 -7.3430 304° West 430 495 38,000  Level FlightAware ADS-B
Mon 05:45:27 AM 44.2700 -7.4460 304° West 421 484 38,000  Level FlightAware ADS-B
Mon 05:46:07 AM 44.3100 -7.5290 304° West 415 478 38,000  Level FlightAware ADS-B
Mon 05:46:47 AM 44.3480 -7.6080 304° West 414 476 38,000  Level FlightAware ADS-B
Mon 05:47:32 AM 44.4030 -7.7240 304° West 416 479 38,000  Level FlightAware ADS-B
Mon 05:48:12 AM 44.4440 -7.8090 304° West 415 478 38,000  Level FlightAware ADS-B
Mon 05:48:57 AM 44.4920 -7.9100 304° West 414 476 38,000  Level FlightAware ADS-B
Mon 05:50:17 AM 44.5780 -8.0920 304° West 414 476 38,000  Level FlightAware ADS-B
Mon 05:51:02 AM 44.6250 -8.1920 303° West 415 478 38,000  Level FlightAware ADS-B
Mon 05:51:42 AM 44.6660 -8.2790 304° West 416 479 38,000  Level FlightAware ADS-B
Mon 05:52:27 AM 44.7090 -8.3690 304° West 414 476 38,000  Level FlightAware ADS-B
Mon 05:53:07 AM 44.7590 -8.4760 303° West 414 476 38,000  Level FlightAware ADS-B
Mon 05:53:47 AM 44.7970 -8.5580 303° West 413 475 38,000  Level FlightAware ADS-B
Mon 05:54:32 AM 44.8440 -8.6610 303° West 409 471 38,000  Level FlightAware ADS-B
Mon 05:55:57 AM 44.9270 -8.8390 303° West 406 467 38,000  Level FlightAware ADS-B
Mon 05:56:37 AM 44.9740 -8.9420 303° West 405 466 38,000  Level FlightAware ADS-B
Mon 05:57:17 AM 45.0200 -9.0270 307° West 407 468 38,000  Level FlightAware ADS-B
Mon 05:58:02 AM 45.0730 -9.1030 315° West 417 480 38,000  Level FlightAware ADS-B
Mon 05:58:42 AM 45.1200 -9.1690 315° West 417 480 38,000  Level FlightAware ADS-B
Mon 05:59:22 AM 45.1660 -9.2340 315° West 417 480 38,000  Level FlightAware ADS-B
Mon 06:00:02 AM 45.2120 -9.3000 315° West 417 480 38,000  Level FlightAware ADS-B
Mon 06:00:42 AM 45.2590 -9.3660 315° West 417 480 38,000  Level FlightAware ADS-B
Mon 06:01:47 AM 45.4030 -9.5450 319° Northwest 427 491 38,000  Level FlightAware ADS-B
Mon 06:02:22 AM 45.4440 -9.6020 316° Northwest 427 491 38,000  Level FlightAware ADS-B
Mon 06:03:07 AM 45.5190 -9.7050 316° Northwest 428 493 38,000  Level FlightAware ADS-B
Mon 06:03:47 AM 45.5650 -9.7700 315° West 428 493 38,000  Level FlightAware ADS-B
Mon 06:04:32 AM 45.6340 -9.8640 316° Northwest 428 493 38,000  Level FlightAware ADS-B
Mon 06:05:17 AM 45.7020 -9.9580 316° Northwest 427 491 38,000  Level FlightAware ADS-B
Mon 06:06:12 AM 45.7750 -10.0610 315° West 425 489 38,000  Level FlightAware ADS-B
Mon 06:07:07 AM 45.8550 -10.1720 316° Northwest 425 489 38,000  Level FlightAware ADS-B
Mon 06:07:47 AM 45.9080 -10.2480 315° West 425 489 38,000  Level FlightAware ADS-B
Mon 06:08:37 AM 45.9850 -10.3540 316° Northwest 426 490 38,000  Level FlightAware ADS-B
Mon 06:09:22 AM 45.9850 -10.3540 316° Northwest 427 491 38,000  Level FlightAware ADS-B
Mon 06:10:22 AM 46.1220 -10.5500 315° West 427 491 38,000  Level FlightAware ADS-B
Mon 06:11:02 AM 46.1700 -10.6180 316° Northwest 427 491 38,000  Level FlightAware ADS-B
Mon 06:12:02 AM 46.2660 -10.7550 315° West 432 497 38,000  Level FlightAware ADS-B
Mon 06:12:42 AM 46.3140 -10.8240 315° West 432 497 38,000  Level FlightAware ADS-B
Mon 06:13:22 AM 46.3620 -10.8940 315° West 432 497 38,000  Level FlightAware ADS-B
Mon 06:14:07 AM 46.4370 -11.0010 316° Northwest 431 496 38,000  Level FlightAware ADS-B
Mon 06:14:47 AM 46.4850 -11.0710 315° West 431 496 38,000  Level FlightAware ADS-B
Mon 06:15:27 AM 46.5330 -11.1400 315° West 431 496 38,000  Level FlightAware ADS-B
Mon 06:16:12 AM 46.4060 -10.9560 135° Southeast 38,000  Level FlightAware ADS-B
Mon 06:18:00 AM 46.4607 -11.2284 286° West  Level Estimated
Mon 06:19:00 AM 46.4909 -11.3800 286° West  Level Estimated
Mon 06:20:00 AM 46.5208 -11.5317 286° West  Level Estimated
Mon 06:21:00 AM 46.5505 -11.6836 286° West  Level Estimated
Mon 06:22:00 AM 46.5801 -11.8357 286° West  Level Estimated
Mon 06:23:00 AM 46.6094 -11.9879 286° West  Level Estimated
Mon 06:24:00 AM 46.6385 -12.1403 286° West  Level Estimated
Mon 06:25:00 AM 46.6674 -12.2929 285° West  Level Estimated
Mon 06:26:00 AM 46.6962 -12.4456 285° West  Level Estimated
Mon 06:27:00 AM 46.7247 -12.5985 285° West  Level Estimated
Mon 06:28:00 AM 46.7530 -12.7516 285° West  Level Estimated
Mon 06:29:00 AM 46.7811 -12.9048 285° West  Level Estimated
Mon 06:30:00 AM 46.8090 -13.0582 285° West  Level Estimated
Mon 06:31:00 AM 46.8367 -13.2117 285° West  Level Estimated
Mon 06:32:00 AM 46.8642 -13.3654 285° West  Level Estimated
Mon 06:33:00 AM 46.8915 -13.5192 285° West  Level Estimated
Mon 06:34:00 AM 46.9186 -13.6732 284° West  Level Estimated
Mon 06:35:00 AM 46.9454 -13.8274 284° West  Level Estimated
Mon 06:36:00 AM 46.9721 -13.9817 284° West  Level Estimated
Mon 06:37:00 AM 46.9986 -14.1362 284° West  Level Estimated
Mon 06:38:00 AM 47.0248 -14.2908 284° West  Level Estimated
Mon 06:39:00 AM 47.0508 -14.4455 284° West  Level Estimated
Mon 06:40:00 AM 47.0767 -14.6005 284° West  Level Estimated
Mon 06:41:00 AM 47.1023 -14.7555 284° West  Level Estimated
Mon 06:42:00 AM 47.1277 -14.9108 284° West  Level Estimated
Mon 06:43:00 AM 47.1529 -15.0661 283° West  Level Estimated
Mon 06:44:00 AM 47.1779 -15.2216 283° West  Level Estimated
Mon 06:45:00 AM 47.2027 -15.3773 283° West  Level Estimated
Mon 06:46:00 AM 47.2273 -15.5331 283° West  Level Estimated
Mon 06:47:00 AM 47.2517 -15.6894 283° West  Level Estimated
Mon 06:48:00 AM 47.2759 -15.8457 283° West  Level Estimated
Mon 06:49:00 AM 47.2999 -16.0023 283° West  Level Estimated
Mon 06:50:00 AM 47.3237 -16.1590 283° West  Level Estimated
Mon 06:51:00 AM 47.3472 -16.3158 283° West  Level Estimated
Mon 06:52:00 AM 47.3706 -16.4727 282° West  Level Estimated
Mon 06:53:00 AM 47.3937 -16.6299 282° West  Level Estimated
Mon 06:54:00 AM 47.4166 -16.7871 282° West  Level Estimated
Mon 06:55:00 AM 47.4393 -16.9445 282° West  Level Estimated
Mon 06:56:00 AM 47.4618 -17.1020 282° West  Level Estimated
Mon 06:57:00 AM 47.4841 -17.2596 282° West  Level Estimated
Mon 06:58:00 AM 47.5061 -17.4174 282° West  Level Estimated
Mon 06:59:00 AM 47.5279 -17.5753 282° West  Level Estimated
Mon 07:00:00 AM 47.5496 -17.7333 282° West  Level Estimated
Mon 07:01:00 AM 47.5710 -17.8915 281° West  Level Estimated
Mon 07:02:00 AM 47.5921 -18.0498 281° West  Level Estimated
Mon 07:03:00 AM 47.6131 -18.2082 281° West  Level Estimated
Mon 07:04:00 AM 47.6339 -18.3668 281° West  Level Estimated
Mon 07:05:00 AM 47.6544 -18.5254 281° West  Level Estimated
Mon 07:06:00 AM 47.6747 -18.6842 281° West  Level Estimated
Mon 07:07:00 AM 47.6965 -18.8564 281° West  Level Estimated
Mon 07:08:00 AM 47.7180 -19.0287 281° West  Level Estimated
Mon 07:09:00 AM 47.7392 -19.2012 280° West  Level Estimated
Mon 07:10:00 AM 47.7602 -19.3738 280° West  Level Estimated
Mon 07:11:00 AM 47.7809 -19.5466 280° West  Level Estimated
Mon 07:12:00 AM 47.8014 -19.7194 280° West  Level Estimated
Mon 07:13:00 AM 47.8216 -19.8924 280° West  Level Estimated
Mon 07:14:00 AM 47.8415 -20.0656 280° West  Level Estimated
Mon 07:15:00 AM 47.8612 -20.2389 280° West  Level Estimated
Mon 07:16:00 AM 47.8806 -20.4123 280° West  Level Estimated
Mon 07:16:00 AM 51.0000 -20.0000 300° West 443 510 38,000  Level ETMS Enhanced Traffic Management System
Mon 07:17:00 AM 47.8998 -20.5858 279° West  Level Estimated
Mon 07:18:00 AM 47.9179 -20.7526 279° West  Level Estimated
Mon 07:18:19 AM 51.1000 -20.3000 300° West 437 503 38,000  Level ETMS Enhanced Traffic Management System
Mon 07:19:00 AM 47.9358 -20.9194 279° West  Level Estimated
Mon 07:20:00 AM 47.9535 -21.0864 279° West  Level Estimated
Mon 07:21:00 AM 47.9709 -21.2535 279° West  Level Estimated
Mon 07:22:00 AM 51.3669 -21.0243 299° West 443 510 38,000  Level FlightAware Transoceanic
Mon 07:23:00 AM 51.4272 -21.1966 299° West 443 510 38,000  Level FlightAware Transoceanic
Mon 07:24:00 AM 51.4602 -21.3141 299° West 437 503 38,000  Level FlightAware Transoceanic
Mon 07:25:00 AM 51.5193 -21.4847 299° West 437 503 38,000  Level FlightAware Transoceanic
Mon 07:26:00 AM 51.5783 -21.6557 299° West 437 503 38,000  Level FlightAware Transoceanic
Mon 07:27:00 AM 51.6369 -21.8272 299° West 437 503 38,000  Level FlightAware Transoceanic
Mon 07:28:00 AM 51.6953 -21.9991 299° West 437 503 38,000  Level FlightAware Transoceanic
Mon 07:29:00 AM 51.7535 -22.1714 299° West 437 503 38,000  Level FlightAware Transoceanic
Mon 07:30:00 AM 51.8114 -22.3442 298° West 437 503 38,000  Level FlightAware Transoceanic
Mon 07:31:00 AM 51.8691 -22.5175 298° West 437 503 38,000  Level FlightAware Transoceanic
Mon 07:32:00 AM 51.9265 -22.6912 298° West 437 503 38,000  Level FlightAware Transoceanic
Mon 07:33:00 AM 51.9837 -22.8653 298° West 437 503 38,000  Level FlightAware Transoceanic
Mon 07:34:00 AM 52.0405 -23.0398 298° West 437 503 38,000  Level FlightAware Transoceanic
Mon 07:35:00 AM 52.0972 -23.2148 298° West 437 503 38,000  Level FlightAware Transoceanic
Mon 07:36:00 AM 52.1536 -23.3903 298° West 437 503 38,000  Level FlightAware Transoceanic
Mon 07:37:00 AM 52.2097 -23.5662 297° West 437 503 38,000  Level FlightAware Transoceanic
Mon 07:38:00 AM 52.2655 -23.7425 297° West 437 503 38,000  Level FlightAware Transoceanic
Mon 07:39:00 AM 52.3211 -23.9193 297° West 437 503 38,000  Level FlightAware Transoceanic
Mon 07:40:00 AM 52.3764 -24.0965 297° West 437 503 38,000  Level FlightAware Transoceanic
Mon 07:41:00 AM 52.4315 -24.2742 297° West 437 503 38,000  Level FlightAware Transoceanic
Mon 07:42:00 AM 52.4863 -24.4523 297° West 437 503 38,000  Level FlightAware Transoceanic
Mon 07:43:00 AM 52.5408 -24.6309 297° West 437 503 38,000  Level FlightAware Transoceanic
Mon 07:44:00 AM 52.5951 -24.8099 296° West 437 503 38,000  Level FlightAware Transoceanic
Mon 07:45:00 AM 52.6491 -24.9893 296° West 437 503 38,000  Level FlightAware Transoceanic
Mon 07:46:00 AM 52.7028 -25.1692 296° West 437 503 38,000  Level FlightAware Transoceanic
Mon 07:47:00 AM 52.7562 -25.3496 296° West 437 503 38,000  Level FlightAware Transoceanic
Mon 07:48:00 AM 52.8094 -25.5303 296° West 437 503 38,000  Level FlightAware Transoceanic
Mon 07:49:00 AM 52.8623 -25.7115 296° West 437 503 38,000  Level FlightAware Transoceanic
Mon 07:50:00 AM 52.9149 -25.8932 296° West 437 503 38,000  Level FlightAware Transoceanic
Mon 07:51:00 AM 52.9672 -26.0753 295° West 437 503 38,000  Level FlightAware Transoceanic
Mon 07:52:00 AM 53.0193 -26.2578 295° West 437 503 38,000  Level FlightAware Transoceanic
Mon 07:53:00 AM 53.0710 -26.4408 295° West 437 503 38,000  Level FlightAware Transoceanic
Mon 07:54:00 AM 53.1226 -26.6242 295° West 437 503 38,000  Level FlightAware Transoceanic
Mon 07:55:00 AM 53.1738 -26.8081 295° West 437 503 38,000  Level FlightAware Transoceanic
Mon 07:56:00 AM 53.2247 -26.9923 295° West 437 503 38,000  Level FlightAware Transoceanic
Mon 07:57:00 AM 53.2753 -27.1771 295° West 437 503 38,000  Level FlightAware Transoceanic
Mon 07:58:00 AM 53.3257 -27.3622 294° West 437 503 38,000  Level FlightAware Transoceanic
Mon 07:59:00 AM 53.3758 -27.5478 294° West 437 503 38,000  Level FlightAware Transoceanic
Mon 08:00:00 AM 53.4255 -27.7339 294° West 437 503 38,000  Level FlightAware Transoceanic
Mon 08:01:00 AM 53.4750 -27.9203 294° West 437 503 38,000  Level FlightAware Transoceanic
Mon 08:02:00 AM 53.5242 -28.1073 294° West 437 503 38,000  Level FlightAware Transoceanic
Mon 08:03:00 AM 53.5732 -28.2946 294° West 437 503 38,000  Level FlightAware Transoceanic
Mon 08:04:00 AM 53.6218 -28.4824 293° West 437 503 38,000  Level FlightAware Transoceanic
Mon 08:05:00 AM 53.6701 -28.6706 293° West 437 503 38,000  Level FlightAware Transoceanic
Mon 08:06:00 AM 53.7181 -28.8592 293° West 437 503 38,000  Level FlightAware Transoceanic
Mon 08:07:00 AM 53.7659 -29.0483 293° West 437 503 38,000  Level FlightAware Transoceanic
Mon 08:08:00 AM 53.8133 -29.2378 293° West 437 503 38,000  Level FlightAware Transoceanic
Mon 08:09:00 AM 53.8604 -29.4277 293° West 437 503 38,000  Level FlightAware Transoceanic
Mon 08:10:00 AM 53.9072 -29.6180 293° West 437 503 38,000  Level FlightAware Transoceanic
Mon 08:11:00 AM 53.9538 -29.8088 292° West 437 503 38,000 20 Level FlightAware Transoceanic
Mon 08:12:00 AM 53.9968 -29.9869 292° West  Level FlightAware Approximate
Mon 08:13:00 AM 54.0396 -30.1653 292° West  Level FlightAware Approximate
Mon 08:14:00 AM 54.0067 -30.1639 274° West  Level FlightAware Approximate
Mon 08:15:00 AM 54.0143 -30.3561 274° West  Level FlightAware Approximate
Mon 08:16:00 AM 54.0215 -30.5485 274° West  Level FlightAware Approximate
Mon 08:17:00 AM 54.0285 -30.7409 274° West  Level FlightAware Approximate
Mon 08:18:00 AM 54.0352 -30.9333 273° West  Level FlightAware Approximate
Mon 08:19:00 AM 54.0415 -31.1258 273° West  Level FlightAware Approximate
Mon 08:20:00 AM 54.0476 -31.3184 273° West  Level FlightAware Approximate
Mon 08:21:00 AM 54.0533 -31.5110 273° West  Level FlightAware Approximate
Mon 08:22:00 AM 54.0587 -31.7037 273° West  Level FlightAware Approximate
Mon 08:23:00 AM 54.0639 -31.8964 273° West  Level FlightAware Approximate
Mon 08:24:00 AM 54.0687 -32.0892 273° West  Level FlightAware Approximate
Mon 08:25:00 AM 54.0732 -32.2820 272° West  Level FlightAware Approximate
Mon 08:26:00 AM 54.0774 -32.4749 272° West  Level FlightAware Approximate
Mon 08:27:00 AM 54.0813 -32.6678 272° West  Level FlightAware Approximate
Mon 08:28:00 AM 54.0848 -32.8607 272° West  Level FlightAware Approximate
Mon 08:29:00 AM 54.0881 -33.0537 272° West  Level FlightAware Approximate
Mon 08:30:00 AM 54.0911 -33.2467 272° West  Level FlightAware Approximate
Mon 08:31:00 AM 54.0937 -33.4397 271° West  Level FlightAware Approximate
Mon 08:32:00 AM 54.0961 -33.6327 271° West  Level FlightAware Approximate
Mon 08:33:00 AM 54.0981 -33.8258 271° West  Level FlightAware Approximate
Mon 08:34:00 AM 54.0998 -34.0189 271° West  Level FlightAware Approximate
Mon 08:35:00 AM 54.1012 -34.2120 271° West  Level FlightAware Approximate
Mon 08:36:00 AM 54.1023 -34.4051 271° West  Level FlightAware Approximate
Mon 08:37:00 AM 54.1031 -34.5982 270° West  Level FlightAware Approximate
Mon 08:38:00 AM 54.1036 -34.7913 270° West  Level FlightAware Approximate
Mon 08:39:00 AM 54.1038 -34.9844 270° West  Level FlightAware Approximate
Mon 08:40:00 AM 54.1037 -35.1776 270° West  Level FlightAware Approximate
Mon 08:41:00 AM 54.1032 -35.3707 270° West  Level FlightAware Approximate
Mon 08:42:00 AM 54.1025 -35.5638 270° West  Level FlightAware Approximate
Mon 08:43:00 AM 54.1014 -35.7569 270° West  Level FlightAware Approximate
Mon 08:44:00 AM 54.1001 -35.9500 269° West  Level FlightAware Approximate
Mon 08:45:00 AM 54.0984 -36.1431 269° West  Level FlightAware Approximate
Mon 08:46:00 AM 54.0964 -36.3362 269° West  Level FlightAware Approximate
Mon 08:47:00 AM 54.0941 -36.5292 269° West  Level FlightAware Approximate
Mon 08:48:00 AM 54.0915 -36.7222 269° West  Level FlightAware Approximate
Mon 08:49:00 AM 54.0886 -36.9152 269° West  Level FlightAware Approximate
Mon 08:50:00 AM 54.0854 -37.1082 268° West  Level FlightAware Approximate
Mon 08:51:00 AM 54.0819 -37.3011 268° West  Level FlightAware Approximate
Mon 08:52:00 AM 54.0780 -37.4940 268° West  Level FlightAware Approximate
Mon 08:53:00 AM 54.0739 -37.6869 268° West  Level FlightAware Approximate
Mon 08:54:00 AM 54.0694 -37.8797 268° West  Level FlightAware Approximate
Mon 08:55:00 AM 54.0647 -38.0725 268° West  Level FlightAware Approximate
Mon 08:56:00 AM 54.0596 -38.2653 268° West  Level FlightAware Approximate
Mon 08:57:00 AM 54.0542 -38.4580 267° West  Level FlightAware Approximate
Mon 08:58:00 AM 54.0485 -38.6506 267° West  Level FlightAware Approximate
Mon 08:59:00 AM 54.0425 -38.8432 267° West  Level FlightAware Approximate
Mon 09:00:00 AM 54.0362 -39.0357 267° West  Level FlightAware Approximate
Mon 09:01:00 AM 54.0296 -39.2282 267° West  Level FlightAware Approximate
Mon 09:02:00 AM 54.0227 -39.4213 267° West  Level FlightAware Approximate
Mon 09:03:00 AM 54.0154 -39.6144 266° West  Level FlightAware Approximate
Mon 09:04:00 AM 54.0079 -39.8075 266° West  Level FlightAware Approximate
Mon 09:05:00 AM 53.9999 -40.0004 255° West  Level FlightAware Approximate
Mon 09:06:00 AM 53.9707 -40.1873 255° West  Level FlightAware Approximate
Mon 09:07:00 AM 53.9413 -40.3739 255° West  Level FlightAware Approximate
Mon 09:08:00 AM 53.9115 -40.5602 255° West  Level FlightAware Approximate
Mon 09:09:00 AM 53.8814 -40.7463 255° West  Level FlightAware Approximate
Mon 09:10:00 AM 53.8511 -40.9320 255° West  Level FlightAware Approximate
Mon 09:11:00 AM 53.8204 -41.1176 254° West  Level FlightAware Approximate
Mon 09:12:00 AM 53.7895 -41.3028 254° West  Level FlightAware Approximate
Mon 09:13:00 AM 53.7583 -41.4878 254° West  Level FlightAware Approximate
Mon 09:14:00 AM 53.7268 -41.6725 254° West  Level FlightAware Approximate
Mon 09:15:00 AM 53.6951 -41.8569 254° West  Level FlightAware Approximate
Mon 09:16:00 AM 53.6630 -42.0410 254° West  Level FlightAware Approximate
Mon 09:17:00 AM 53.6307 -42.2249 254° West  Level FlightAware Approximate
Mon 09:18:00 AM 53.5980 -42.4085 253° West  Level FlightAware Approximate
Mon 09:19:00 AM 53.5652 -42.5918 254° West  Level FlightAware Approximate
Mon 09:20:00 AM 53.5333 -42.7754 254° West  Level FlightAware Approximate
Mon 09:21:00 AM 53.5010 -42.9588 254° West  Level FlightAware Approximate
Mon 09:22:00 AM 53.4685 -43.1419 253° West  Level FlightAware Approximate
Mon 09:23:00 AM 53.4357 -43.3246 253° West  Level FlightAware Approximate
Mon 09:24:00 AM 53.4027 -43.5072 253° West  Level FlightAware Approximate
Mon 09:25:00 AM 53.3694 -43.6894 253° West  Level FlightAware Approximate
Mon 09:26:00 AM 53.3357 -43.8713 253° West  Level FlightAware Approximate
Mon 09:27:00 AM 53.3018 -44.0530 253° West  Level FlightAware Approximate
Mon 09:28:00 AM 53.2677 -44.2343 253° West  Level FlightAware Approximate
Mon 09:29:00 AM 53.2332 -44.4154 252° West  Level FlightAware Approximate
Mon 09:30:00 AM 53.1985 -44.5962 252° West  Level FlightAware Approximate
Mon 09:31:00 AM 53.1635 -44.7767 252° West  Level FlightAware Approximate
Mon 09:32:00 AM 53.1283 -44.9569 252° West  Level FlightAware Approximate
Mon 09:33:00 AM 53.0927 -45.1368 252° West  Level FlightAware Approximate
Mon 09:34:00 AM 53.0568 -45.3163 252° West  Level FlightAware Approximate
Mon 09:35:00 AM 53.0206 -45.4955 252° West  Level FlightAware Approximate
Mon 09:36:00 AM 52.9842 -45.6745 251° West  Level FlightAware Approximate
Mon 09:37:00 AM 52.9475 -45.8531 251° West  Level FlightAware Approximate
Mon 09:38:00 AM 52.9105 -46.0315 251° West  Level FlightAware Approximate
Mon 09:39:00 AM 52.8733 -46.2095 251° West  Level FlightAware Approximate
Mon 09:40:00 AM 52.8358 -46.3872 251° West  Level FlightAware Approximate
Mon 09:41:00 AM 52.7980 -46.5646 251° West  Level FlightAware Approximate
Mon 09:42:00 AM 52.7600 -46.7417 251° West  Level FlightAware Approximate
Mon 09:43:00 AM 52.7217 -46.9185 250° West  Level FlightAware Approximate
Mon 09:44:00 AM 52.6831 -47.0950 250° West  Level FlightAware Approximate
Mon 09:45:00 AM 52.6443 -47.2712 250° West  Level FlightAware Approximate
Mon 09:46:00 AM 52.6052 -47.4471 250° West  Level FlightAware Approximate
Mon 09:47:00 AM 52.5659 -47.6226 250° West  Level FlightAware Approximate
Mon 09:48:00 AM 52.5263 -47.7979 250° West  Level FlightAware Approximate
Mon 09:49:00 AM 52.4864 -47.9728 250° West  Level FlightAware Approximate
Mon 09:50:00 AM 52.4463 -48.1474 249° West  Level FlightAware Approximate
Mon 09:51:00 AM 52.4059 -48.3216 249° West  Level FlightAware Approximate
Mon 09:51:32 AM 51.9333 -50.2667 249° West 520 598 40,000  Level Gander Center
Mon 09:52:00 AM 52.3652 -48.4959 249° West  Level FlightAware Approximate
Mon 09:52:32 AM 51.8833 -50.4667 248° West 470 541 40,000  Level Gander Center
Mon 09:53:00 AM 52.3242 -48.6699 249° West  Level FlightAware Approximate
Mon 09:53:32 AM 51.8500 -50.6667 255° West 470 541 40,000  Level Gander Center
Mon 09:54:00 AM 52.2830 -48.8436 249° West  Level FlightAware Approximate
Mon 09:54:32 AM 51.8000 -50.8667 248° West 470 541 40,000  Level Gander Center
Mon 09:55:00 AM 52.2416 -49.0169 249° West  Level FlightAware Approximate
Mon 09:55:32 AM 51.7500 -51.0833 250° West 470 541 40,000  Level Gander Center
Mon 09:56:00 AM 52.1998 -49.1899 249° West  Level FlightAware Approximate
Mon 09:56:32 AM 51.6833 -51.2500 237° Southwest 470 541 40,000  Level Gander Center
Mon 09:57:32 AM 51.6333 -51.4500 248° West 480 552 40,000  Level Gander Center
Mon 09:58:17 AM 51.6000 -51.6000 250° West 470 541 40,000  Level Gander Center
Mon 09:58:32 AM 51.5833 -51.6500 242° Southwest 470 541 40,000  Level Gander Center
Mon 09:59:32 AM 51.5333 -51.8333 246° West 470 541 40,000  Level Gander Center
Mon 10:00:32 AM 51.4833 -52.0333 248° West 470 541 40,000  Level Gander Center
Mon 10:01:32 AM 51.4167 -52.2000 237° Southwest 470 541 40,000  Level Gander Center
Mon 10:02:17 AM 51.3833 -52.3667 252° West 470 541 40,000  Level Gander Center
Mon 10:02:32 AM 51.3667 -52.4000 231° Southwest 470 541 40,000  Level Gander Center
Mon 10:03:32 AM 51.3167 -52.6000 248° West 470 541 40,000  Level Gander Center
Mon 10:04:17 AM 51.2833 -52.7333 248° West 470 541 40,000  Level Gander Center
Mon 10:04:32 AM 51.2500 -52.8000 231° Southwest 470 541 40,000  Level Gander Center
Mon 10:05:25 AM 51.2000 -52.9667 244° Southwest 470 541 40,000  Level Moncton Center
Mon 10:06:25 AM 51.1500 -53.1333 244° Southwest 460 529 40,000  Level Moncton Center
Mon 10:07:25 AM 51.1000 -53.3167 247° West 470 541 40,000  Level Moncton Center
Mon 10:08:25 AM 51.0333 -53.5167 242° Southwest 470 541 40,000  Level Moncton Center
Mon 10:09:25 AM 50.9833 -53.6833 245° Southwest 470 541 40,000  Level Moncton Center
Mon 10:10:25 AM 50.9333 -53.8833 248° West 470 541 40,000  Level Moncton Center
Mon 10:11:17 AM 50.8833 -54.0333 242° Southwest 470 541 40,000  Level Gander Center
Mon 10:12:32 AM 50.8167 -54.2833 247° West 470 541 40,000  Level Gander Center
Mon 10:13:17 AM 50.7667 -54.4000 236° Southwest 470 541 40,000  Level Gander Center
Mon 10:14:17 AM 50.7000 -54.6000 242° Southwest 470 541 40,000  Level Gander Center
Mon 10:14:32 AM 50.6833 -54.6500 242° Southwest 470 541 40,000  Level Gander Center
Mon 10:15:32 AM 50.6333 -54.8500 249° West 470 541 40,000  Level Gander Center
Mon 10:16:32 AM 50.5667 -55.0167 238° Southwest 470 541 40,000  Level Gander Center
Mon 10:17:32 AM 50.5167 -55.2000 247° West 470 541 40,000  Level Gander Center
Mon 10:18:32 AM 50.4500 -55.4000 242° Southwest 470 541 40,000  Level Gander Center
Mon 10:19:32 AM 50.4000 -55.5667 245° Southwest 470 541 40,000  Level Gander Center
Mon 10:20:32 AM 50.3333 -55.7500 240° Southwest 470 541 40,000  Level Gander Center
Mon 10:21:32 AM 50.2833 -55.9333 247° West 470 541 40,000  Level Gander Center
Mon 10:22:32 AM 50.2167 -56.1000 238° Southwest 470 541 40,000  Level Gander Center
Mon 10:23:32 AM 50.1500 -56.3000 243° Southwest 470 541 40,000  Level Gander Center
Mon 10:24:32 AM 50.1000 -56.4500 243° Southwest 470 541 40,000  Level Gander Center
Mon 10:25:32 AM 50.0333 -56.6500 243° Southwest 460 529 40,000  Level Gander Center
Mon 10:26:32 AM 49.9667 -56.8333 241° Southwest 460 529 40,000  Level Gander Center
Mon 10:27:32 AM 49.9000 -57.0167 241° Southwest 460 529 40,000  Level Gander Center
Mon 10:28:32 AM 49.8500 -57.1833 245° Southwest 460 529 40,000  Level Gander Center
Mon 10:29:32 AM 49.7833 -57.3667 241° Southwest 460 529 40,000  Level Gander Center
Mon 10:30:32 AM 49.7167 -57.5333 238° Southwest 460 529 40,000  Level Gander Center
Mon 10:31:32 AM 49.6667 -57.7167 247° West 460 529 40,000  Level Gander Center
Mon 10:32:32 AM 49.6000 -57.8833 238° Southwest 460 529 40,000  Level Gander Center
Mon 10:33:32 AM 49.5333 -58.0667 241° Southwest 460 529 40,000  Level Gander Center
Mon 10:34:25 AM 49.4833 -58.2167 243° Southwest 460 529 40,000  Level Moncton Center
Mon 10:35:25 AM 49.4167 -58.3667 236° Southwest 460 529 40,000  Level Moncton Center
Mon 10:36:25 AM 49.3667 -58.5333 245° Southwest 460 529 40,000  Level Moncton Center
Mon 10:37:25 AM 49.3000 -58.7167 241° Southwest 460 529 40,000  Level Moncton Center
Mon 10:38:25 AM 49.2500 -58.8833 245° Southwest 460 529 40,000  Level Moncton Center
Mon 10:39:25 AM 49.1667 -59.0667 235° Southwest 460 529 40,000  Level Moncton Center
Mon 10:40:25 AM 49.1000 -59.2333 239° Southwest 460 529 40,000  Level Moncton Center
Mon 10:41:25 AM 49.0333 -59.3833 236° Southwest 460 529 40,000  Level Moncton Center
Mon 10:42:25 AM 48.9667 -59.5500 239° Southwest 460 529 40,000  Level Moncton Center
Mon 10:43:25 AM 48.9000 -59.7333 241° Southwest 460 529 40,000  Level Moncton Center
Mon 10:44:25 AM 48.8333 -59.9000 239° Southwest 460 529 40,000  Level Moncton Center
Mon 10:45:25 AM 48.7667 -60.0500 236° Southwest 460 529 40,000  Level Moncton Center
Mon 10:46:25 AM 48.7000 -60.2167 239° Southwest 460 529 40,000  Level Moncton Center
Mon 10:47:25 AM 48.6333 -60.3667 236° Southwest 460 529 40,000  Level Moncton Center
Mon 10:48:25 AM 48.5500 -60.5500 236° Southwest 460 529 40,000  Level Moncton Center
Mon 10:49:25 AM 48.5000 -60.7000 243° Southwest 460 529 40,000  Level Moncton Center
Mon 10:50:25 AM 48.4167 -60.8667 233° Southwest 450 518 40,000  Level Moncton Center
Mon 10:51:25 AM 48.3500 -61.0167 236° Southwest 450 518 40,000  Level Moncton Center
Mon 10:52:25 AM 48.2833 -61.2000 241° Southwest 460 529 40,000  Level Moncton Center
Mon 10:53:25 AM 48.2167 -61.3500 236° Southwest 460 529 40,000  Level Moncton Center
Mon 10:54:25 AM 48.1500 -61.5167 239° Southwest 460 529 40,000  Level Moncton Center
Mon 10:55:25 AM 48.0667 -61.6667 230° Southwest 460 529 40,000  Level Moncton Center
Mon 10:56:25 AM 48.0000 -61.8167 236° Southwest 460 529 40,000  Level Moncton Center
Mon 10:57:25 AM 47.9500 -61.9667 244° Southwest 460 529 40,000  Level Moncton Center
Mon 10:58:25 AM 47.8667 -62.1500 236° Southwest 460 529 40,000  Level Moncton Center
Mon 10:59:25 AM 47.8000 -62.3000 237° Southwest 460 529 40,000  Level Moncton Center
Mon 11:00:25 AM 47.7167 -62.4500 230° Southwest 460 529 40,000  Level Moncton Center
Mon 11:01:25 AM 47.6500 -62.6000 237° Southwest 460 529 40,000  Level Moncton Center
Mon 11:02:25 AM 47.5667 -62.7833 236° Southwest 450 518 40,000  Level Moncton Center
Mon 11:03:25 AM 47.5000 -62.9167 234° Southwest 450 518 40,000  Level Moncton Center
Mon 11:04:25 AM 47.4333 -63.0667 237° Southwest 450 518 40,000  Level Moncton Center
Mon 11:05:25 AM 47.3833 -63.2333 246° West 450 518 40,000  Level Moncton Center
Mon 11:06:25 AM 47.3000 -63.3833 231° Southwest 450 518 40,000  Level Moncton Center
Mon 11:07:25 AM 47.2333 -63.5333 237° Southwest 450 518 40,000  Level Moncton Center
Mon 11:08:25 AM 47.1667 -63.6833 237° Southwest 450 518 40,000  Level Moncton Center
Mon 11:09:25 AM 47.0833 -63.8333 231° Southwest 450 518 40,000  Level Moncton Center
Mon 11:10:25 AM 47.0167 -63.9833 237° Southwest 450 518 40,000  Level Moncton Center
Mon 11:11:25 AM 46.9333 -64.1333 231° Southwest 450 518 40,000  Level Moncton Center
Mon 11:12:25 AM 46.8667 -64.2667 234° Southwest 450 518 40,000  Level Moncton Center
Mon 11:13:25 AM 46.8000 -64.4167 237° Southwest 450 518 40,000  Level Moncton Center
Mon 11:14:25 AM 46.7333 -64.5667 237° Southwest 450 518 40,000  Level Moncton Center
Mon 11:15:25 AM 46.6500 -64.7167 231° Southwest 450 518 40,000  Level Moncton Center
Mon 11:21:27 AM 46.2180 -65.6160 231° Southwest 443 510 40,000  Level FlightAware ADS-B
Mon 11:22:07 AM 46.1710 -65.7080 234° Southwest 442 509 40,000  Level FlightAware ADS-B
Mon 11:22:52 AM 46.1130 -65.8200 233° Southwest 444 511 40,000  Level FlightAware ADS-B
Mon 11:23:32 AM 46.0670 -65.9110 234° Southwest 443 510 40,000  Level FlightAware ADS-B
Mon 11:24:07 AM 46.0230 -65.9950 233° Southwest 441 507 40,000  Level FlightAware ADS-B
Mon 11:24:57 AM 45.9620 -66.1120 233° Southwest 438 504 40,000  Level FlightAware ADS-B
Mon 11:25:37 AM 45.9130 -66.2070 233° Southwest 438 504 40,000  Level FlightAware ADS-B
Mon 11:26:22 AM 45.8580 -66.3120 233° Southwest 438 504 40,000  Level FlightAware ADS-B
Mon 11:27:02 AM 45.8100 -66.4050 234° Southwest 437 503 40,000  Level FlightAware ADS-B
Mon 11:27:42 AM 45.7610 -66.4970 233° Southwest 434 499 40,000  Level FlightAware ADS-B
Mon 11:28:27 AM 45.7090 -66.5950 233° Southwest 433 498 40,000  Level FlightAware ADS-B
Mon 11:29:07 AM 45.6600 -66.6880 233° Southwest 434 499 40,000  Level FlightAware ADS-B
Mon 11:29:52 AM 45.6030 -66.7940 232° Southwest 435 501 40,000  Level FlightAware ADS-B
Mon 11:30:22 AM 45.5740 -66.8500 234° Southwest 436 502 40,000  Level FlightAware ADS-B
Mon 11:31:12 AM 45.5090 -66.9710 233° Southwest 434 499 40,000  Level FlightAware ADS-B
Mon 11:31:57 AM 45.4550 -67.0720 233° Southwest 433 498 40,000  Level FlightAware ADS-B
Mon 11:32:37 AM 45.4050 -67.1640 232° Southwest 431 496 40,000  Level FlightAware ADS-B
Mon 11:33:17 AM 45.3570 -67.2530 233° Southwest 427 491 40,000  Level FlightAware ADS-B
Mon 11:34:02 AM 45.3010 -67.3560 232° Southwest 430 495 40,000  Level FlightAware ADS-B
Mon 11:34:42 AM 45.2490 -67.4510 232° Southwest 433 498 40,000  Level FlightAware ADS-B
Mon 11:35:22 AM 45.2010 -67.5400 233° Southwest 431 496 40,000  Level FlightAware ADS-B
Mon 11:36:07 AM 45.1440 -67.6430 232° Southwest 429 494 40,000  Level FlightAware ADS-B
Mon 11:36:47 AM 45.0950 -67.7320 232° Southwest 428 493 40,000  Level FlightAware ADS-B
Mon 11:37:32 AM 45.0420 -67.8290 232° Southwest 428 493 40,000  Level FlightAware ADS-B
Mon 11:38:12 AM 44.9910 -67.9200 232° Southwest 426 490 40,000  Level FlightAware ADS-B
Mon 11:38:52 AM 44.9440 -68.0060 232° Southwest 424 488 40,000  Level FlightAware ADS-B
Mon 11:39:37 AM 44.8890 -68.1050 232° Southwest 423 487 40,000  Level FlightAware ADS-B
Mon 11:40:17 AM 44.8400 -68.1920 232° Southwest 422 486 40,000  Level FlightAware ADS-B
Mon 11:41:02 AM 44.7840 -68.2920 232° Southwest 422 486 40,000  Level FlightAware ADS-B
Mon 11:41:42 AM 44.7330 -68.3820 231° Southwest 424 488 40,000  Level FlightAware ADS-B
Mon 11:42:27 AM 44.6800 -68.4760 232° Southwest 424 488 40,000  Level FlightAware ADS-B
Mon 11:43:12 AM 44.6250 -68.5740 232° Southwest 424 488 40,000  Level FlightAware ADS-B
Mon 11:43:52 AM 44.5750 -68.6620 231° Southwest 424 488 40,000  Level FlightAware ADS-B
Mon 11:44:32 AM 44.5270 -68.7450 231° Southwest 427 491 40,000  Level FlightAware ADS-B
Mon 11:45:17 AM 44.4700 -68.8450 231° Southwest 429 494 40,000  Level FlightAware ADS-B
Mon 11:45:57 AM 44.4210 -68.9320 232° Southwest 430 495 40,000  Level FlightAware ADS-B
Mon 11:46:37 AM 44.3700 -69.0200 231° Southwest 431 496 40,000  Level FlightAware ADS-B
Mon 11:47:22 AM 44.3150 -69.1150 231° Southwest 429 494 40,000  Level FlightAware ADS-B
Mon 11:48:02 AM 44.2660 -69.1990 231° Southwest 428 493 40,000  Level FlightAware ADS-B
Mon 11:48:47 AM 44.2140 -69.2890 231° Southwest 428 493 40,000  Level FlightAware ADS-B
Mon 11:49:27 AM 44.1580 -69.3850 231° Southwest 429 494 40,000  Level FlightAware ADS-B
Mon 11:50:12 AM 44.1050 -69.4770 231° Southwest 427 491 40,000  Level FlightAware ADS-B
Mon 11:50:52 AM 44.0540 -69.5640 231° Southwest 424 488 40,000  Level FlightAware ADS-B
Mon 11:51:32 AM 44.0040 -69.6430 229° Southwest 428 493 40,000  Level FlightAware ADS-B
Mon 11:52:17 AM 43.9300 -69.7250 219° Southwest 434 499 40,000  Level FlightAware ADS-B
Mon 11:52:57 AM 43.8670 -69.7930 218° Southwest 435 501 40,000  Level FlightAware ADS-B
Mon 11:53:37 AM 43.8040 -69.8620 218° Southwest 435 501 40,000  Level FlightAware ADS-B
Mon 11:54:17 AM 43.7410 -69.9300 218° Southwest 435 501 40,000  Level FlightAware ADS-B
Mon 11:55:02 AM 43.6700 -70.0070 218° Southwest 434 499 40,000  Level FlightAware ADS-B
Mon 11:55:47 AM 43.5970 -70.0850 218° Southwest 438 504 40,000  Level FlightAware ADS-B
Mon 11:56:27 AM 43.5330 -70.1540 218° Southwest 438 504 40,000  Level FlightAware ADS-B
Mon 11:57:07 AM 43.4710 -70.2210 218° Southwest 432 497 40,000  Level FlightAware ADS-B
Mon 11:57:42 AM 43.4140 -70.2810 217° Southwest 429 494 40,000  Level FlightAware ADS-B
Mon 11:58:27 AM 43.3450 -70.3550 218° Southwest 422 486 40,000  Level FlightAware ADS-B
Mon 11:59:07 AM 43.2820 -70.4220 218° Southwest 422 486 40,000  Level FlightAware ADS-B
Mon 11:59:52 AM 43.2140 -70.4940 218° Southwest 424 488 40,000  Level FlightAware ADS-B
Mon 12:00:32 PM 43.1510 -70.5600 217° Southwest 427 491 40,000  Level FlightAware ADS-B
Mon 12:01:12 PM 43.0890 -70.6260 218° Southwest 426 490 40,000  Level FlightAware ADS-B
Mon 12:01:57 PM 43.0160 -70.7020 217° Southwest 422 486 40,000  Level FlightAware ADS-B
Mon 12:02:37 PM 42.9570 -70.7650 218° Southwest 420 483 40,000  Level FlightAware ADS-B
Mon 12:03:22 PM 42.8870 -70.8380 217° Southwest 421 484 40,000  Level FlightAware ADS-B
Mon 12:04:02 PM 42.8210 -70.8960 213° Southwest 430 495 40,000  Level FlightAware ADS-B
Mon 12:04:42 PM 42.7490 -70.9410 205° Southwest 436 502 40,000 -71 Level FlightAware ADS-B
Mon 12:05:27 PM 42.6620 -70.9860 201° Southwest 431 496 39,900 -494 Descending FlightAware ADS-B
Mon 12:06:07 PM 42.5930 -71.0340 207° Southwest 419 482 39,300 -975 Descending FlightAware ADS-B
Mon 12:06:47 PM 42.5230 -71.0820 207° Southwest 417 480 38,600 -988 Descending FlightAware ADS-B
Mon 12:07:32 PM 42.4490 -71.1330 207° Southwest 416 479 37,900 -988 Descending FlightAware ADS-B
Mon 12:08:12 PM 42.3810 -71.1800 207° Southwest 422 486 37,200 -988 Descending FlightAware ADS-B
Mon 12:08:57 PM 42.3020 -71.2340 207° Southwest 429 494 36,500 -988 Descending FlightAware ADS-B
Mon 12:09:37 PM 42.2290 -71.2840 207° Southwest 433 498 35,800 -988 Descending FlightAware ADS-B
Mon 12:10:22 PM 42.1480 -71.3390 207° Southwest 436 502 35,100 -918 Descending FlightAware ADS-B
Mon 12:11:02 PM 42.0760 -71.3880 207° Southwest 439 505 34,500 -975 Descending FlightAware ADS-B
Mon 12:11:42 PM 42.0090 -71.4340 207° Southwest 435 501 33,800 -988 Descending FlightAware ADS-B
Mon 12:12:27 PM 41.9240 -71.4910 207° Southwest 437 503 33,100 -988 Descending FlightAware ADS-B
Mon 12:13:07 PM 41.8500 -71.5410 207° Southwest 449 517 32,400 -975 Descending FlightAware ADS-B
Mon 12:13:47 PM 41.7770 -71.5900 207° Southwest 454 522 31,800 -960 Descending FlightAware ADS-B
Mon 12:14:22 PM 41.7140 -71.6320 206° Southwest 450 518 31,200 -918 Descending FlightAware ADS-B
Mon 12:15:12 PM 41.6220 -71.6940 207° Southwest 452 520 30,500 -1,333 Descending FlightAware ADS-B
Mon 12:15:52 PM 41.5390 -71.7490 206° Southwest 457 526 29,200 -2,118 Descending FlightAware ADS-B
Mon 12:16:37 PM 41.4560 -71.8040 206° Southwest 455 524 27,500 -2,329 Descending FlightAware ADS-B
Mon 12:17:17 PM 41.3790 -71.8550 206° Southwest 447 514 25,900 -2,329 Descending FlightAware ADS-B
Mon 12:18:02 PM 41.2940 -71.9140 208° Southwest 426 490 24,200 -1,380 Descending FlightAware ADS-B
Mon 12:18:57 PM 41.2140 -71.9870 214° Southwest 415 478 23,600 -1,440 Descending FlightAware ADS-B
Mon 12:20:07 PM 41.1180 -72.1130 225° Southwest 401 461 21,200 -1,776 Descending FlightAware ADS-B
Mon 12:21:02 PM 41.0860 -72.1900 241° Southwest 388 447 19,900 -821 Descending FlightAware ADS-B
Mon 12:21:42 PM 41.0530 -72.2570 237° Southwest 388 447 19,900 -2,541 Level FlightAware ADS-B
Mon 12:22:27 PM 41.0260 -72.4170 257° West 371 427 16,300 -2,700 Descending FlightAware ADS-B
Mon 12:23:02 PM 41.0080 -72.4880 251° West 371 427 16,300  Level FlightAware ADS-B
Mon 12:23:52 PM 40.9840 -72.5790 251° West 371 427 16,300  Level FlightAware ADS-B
Mon 12:24:32 PM 40.9650 -72.6520 251° West 371 427 16,300  Level FlightAware ADS-B
Mon 12:25:12 PM 40.9460 -72.7250 251° West 371 427 16,300 -3,525 Level FlightAware ADS-B
Mon 12:25:52 PM 40.9050 -72.8230 241° Southwest 306 352 11,600 -3,882 Descending FlightAware ADS-B
Mon 12:26:37 PM 40.8540 -72.8710 215° Southwest 302 348 10,800 -1,133 Descending FlightAware ADS-B
Mon 12:27:22 PM 40.8030 -72.9210 217° Southwest 296 341 9,900 -1,286 Descending FlightAware ADS-B
Mon 12:27:47 PM 40.7730 -72.9500 216° Southwest 290 334 9,300 -1,371 Descending FlightAware ADS-B
Mon 12:27:57 PM 40.7640 -72.9590 217° Southwest 289 333 9,100 -933 Descending FlightAware ADS-B
Mon 12:28:32 PM 40.7260 -72.9950 216° Southwest 291 335 8,600 -1,000 Descending FlightAware ADS-B
Mon 12:28:57 PM 40.6970 -73.0220 215° Southwest 290 334 8,100 -1,091 Descending FlightAware ADS-B
Mon 12:29:27 PM 40.6640 -73.0540 216° Southwest 280 322 7,600 -1,091 Descending FlightAware ADS-B
Mon 12:29:52 PM 40.6440 -73.0860 231° Southwest 273 314 7,100 -1,309 Descending FlightAware ADS-B
Mon 12:30:22 PM 40.6240 -73.1220 234° Southwest 273 314 6,400 -1,200 Descending FlightAware ADS-B
Mon 12:30:52 PM 40.6010 -73.1620 233° Southwest 266 306 5,900 -982 Descending FlightAware ADS-B
Mon 12:31:17 PM 40.5830 -73.1940 233° Southwest 257 296 5,500 -1,091 Descending FlightAware ADS-B
Mon 12:31:47 PM 40.5610 -73.2320 233° Southwest 252 290 4,900 -1,200 Descending FlightAware ADS-B
Mon 12:31:57 PM 40.5500 -73.2450 222° Southwest 253 291 4,700 -720 Descending FlightAware ADS-B
Mon 12:32:12 PM 40.5370 -73.2570 215° Southwest 249 287 4,600 -533 Descending FlightAware ADS-B
Mon 12:32:42 PM 40.5100 -73.2820 215° Southwest 230 265 4,300 -545 Descending FlightAware ADS-B
Mon 12:33:07 PM 40.4910 -73.3060 224° Southwest 217 250 4,100 -764 Descending FlightAware ADS-B
Mon 12:33:37 PM 40.4690 -73.3340 224° Southwest 220 253 3,600 -667 Descending FlightAware ADS-B
Mon 12:33:52 PM 40.4610 -73.3500 237° Southwest 216 249 3,600  Level FlightAware ADS-B
Mon 12:34:22 PM 40.4490 -73.3840 245° Southwest 215 247 3,600  Level FlightAware ADS-B
Mon 12:34:47 PM 40.4380 -73.4160 246° West 215 247 3,600  Level FlightAware ADS-B
Mon 12:35:02 PM 40.4320 -73.4310 242° Southwest 214 246 3,600  Level FlightAware ADS-B
Mon 12:35:32 PM 40.4190 -73.4680 245° Southwest 214 246 3,600  Level FlightAware ADS-B
Mon 12:35:57 PM 40.4090 -73.4940 243° Southwest 213 245 3,600  Level FlightAware ADS-B
Mon 12:36:07 PM 40.4000 -73.5060 225° Southwest 218 251 3,600  Level FlightAware ADS-B
Mon 12:36:42 PM 40.3710 -73.5310 213° Southwest 219 252 3,600  Level FlightAware ADS-B
Mon 12:37:07 PM 40.3490 -73.5490 212° Southwest 219 252 3,600  Level FlightAware ADS-B
Mon 12:37:37 PM 40.3240 -73.5710 214° Southwest 219 252 3,600  Level FlightAware ADS-B
Mon 12:37:47 PM 40.3160 -73.5810 224° Southwest 213 245 3,600  Level FlightAware ADS-B
Mon 12:38:17 PM 40.3140 -73.6180 266° West 212 244 3,600  Level FlightAware ADS-B
Mon 12:38:47 PM 40.3180 -73.6520 279° West 212 244 3,600  Level FlightAware ADS-B
Mon 12:39:12 PM 40.3220 -73.6860 279° West 210 242 3,600  Level FlightAware ADS-B
Mon 12:39:37 PM 40.3260 -73.7180 279° West 210 242 3,600 -300 Level FlightAware ADS-B
Mon 12:40:12 PM 40.3310 -73.7630 278° West 211 243 3,300 -923 Descending FlightAware ADS-B
Mon 12:40:42 PM 40.3350 -73.8010 278° West 223 257 2,600 -764 Descending FlightAware ADS-B
Mon 12:41:07 PM 40.3390 -73.8350 279° West 224 258 2,600  Level FlightAware ADS-B
Mon 12:41:37 PM 40.3440 -73.8750 279° West 224 258 2,600  Level FlightAware ADS-B
Mon 12:42:07 PM 40.3580 -73.9090 298° West 209 241 2,600  Level FlightAware ADS-B
Mon 12:42:32 PM 40.3770 -73.9310 319° Northwest 205 236 2,600  Level FlightAware ADS-B
Mon 12:42:47 PM 40.3890 -73.9390 333° Northwest 194 223 2,600  Level FlightAware ADS-B
Mon 12:43:02 PM 40.4020 -73.9410 353° North 184 212 2,600  Level FlightAware ADS-B
Mon 12:43:42 PM 40.4340 -73.9320 12° North 183 211 2,600  Level FlightAware ADS-B
Mon 12:44:12 PM 40.4560 -73.9150 30° Northeast 172 198 2,600  Level FlightAware ADS-B
Mon 12:44:37 PM 40.4730 -73.9020 30° Northeast 173 199 2,600  Level FlightAware ADS-B
Mon 12:45:07 PM 40.4940 -73.8850 32° Northeast 173 199 2,600 -200 Level FlightAware ADS-B
Mon 12:45:37 PM 40.5150 -73.8680 32° Northeast 172 198 2,400 -655 Descending FlightAware ADS-B
Mon 12:46:02 PM 40.5320 -73.8550 30° Northeast 157 181 2,000 -982 Descending FlightAware ADS-B
Mon 12:46:32 PM 40.5490 -73.8420 30° Northeast 146 168 1,500 -982 Descending FlightAware ADS-B
Mon 12:46:57 PM 40.5630 -73.8310 31° Northeast 133 153 1,100 -873 Descending FlightAware ADS-B
Mon 12:47:27 PM 40.5800 -73.8190 28° Northeast 132 152 700 -800 Descending FlightAware ADS-B
Mon 12:47:42 PM 40.5870 -73.8130 33° Northeast 132 152 500 -750 Descending FlightAware ADS-B
Mon 12:48:07 PM 40.6000 -73.8030 30° Northeast 127 146 200 -720 Descending FlightAware ADS-B
Mon 12:48:22 PM 40.6070 -73.7970 33° Northeast 133 153 -800 Descending FlightAware ADS-B
Mon 12:48:52 PM 40.6230 -73.7850 30° Northeast 130 150  Level FlightAware ADS-B

Login

Don't have an account? Register now (free) for customized features, flight alerts, and more!